Time;durP1;ratioP1;P1;durP2;ratioP2;P2;SDS_P1;SDS_P2;PMS_P1;PMS_P2;Temp;Humidity;BMP_temperature;BMP_pressure;BME280_temperature;BME280_humidity;BME280_pressure;Samples;Min_cycle;Max_cycle;Signal;HPM_P1;HPM_P2
2024/03/25 00:01:34;;;;;;;3.63;1.48;;;6.80;99.90;;;;;;4993796;28;20034;-71
2024/03/25 00:03:59;;;;;;;6.93;2.05;;;6.70;99.90;;;;;;4993562;28;20562;-72
2024/03/25 00:06:26;;;;;;;1.48;0.90;;;6.80;99.90;;;;;;4993319;28;20034;-71
2024/03/25 00:08:51;;;;;;;3.70;1.15;;;6.70;99.90;;;;;;5008601;28;20026;-71
2024/03/25 00:11:17;;;;;;;3.25;1.40;;;6.70;99.90;;;;;;4993726;28;20418;-71
2024/03/25 00:13:43;;;;;;;1.98;1.45;;;6.70;99.90;;;;;;5007852;28;20490;-72
2024/03/25 00:16:09;;;;;;;7.50;1.92;;;6.70;99.90;;;;;;5008289;28;20030;-71
2024/03/25 00:18:34;;;;;;;2.97;1.65;;;6.60;99.90;;;;;;4993270;28;20395;-70
2024/03/25 00:21:00;;;;;;;4.30;1.63;;;6.70;99.90;;;;;;4993738;28;20367;-71
2024/03/25 00:23:26;;;;;;;6.63;1.80;;;6.70;99.90;;;;;;4989683;28;20031;-70
2024/03/25 00:25:51;;;;;;;2.97;1.85;;;6.60;99.90;;;;;;4992571;28;20041;-69
2024/03/25 00:28:18;;;;;;;4.97;0.93;;;6.60;99.90;;;;;;4993054;28;20475;-70
2024/03/25 00:30:45;;;;;;;18.13;1.92;;;6.60;99.90;;;;;;4993798;28;20386;-69
2024/03/25 00:33:11;;;;;;;8.07;1.27;;;6.50;99.90;;;;;;4992953;28;20037;-70
2024/03/25 00:35:37;;;;;;;7.00;1.00;;;6.30;99.90;;;;;;5001201;28;20121;-70
2024/03/25 00:38:04;;;;;;;3.42;1.33;;;6.30;99.90;;;;;;4989437;28;20564;-70
2024/03/25 00:40:30;;;;;;;3.03;1.02;;;6.10;99.90;;;;;;4989488;28;20022;-70
2024/03/25 00:42:56;;;;;;;2.50;1.55;;;6.10;99.90;;;;;;4993321;28;20052;-70
2024/03/25 00:45:21;;;;;;;2.33;0.95;;;6.00;99.90;;;;;;4988602;28;20132;-73
2024/03/25 00:47:48;;;;;;;3.72;1.45;;;6.00;99.90;;;;;;5008060;28;20117;-69
2024/03/25 00:50:14;;;;;;;11.68;3.45;;;5.90;99.90;;;;;;5007768;28;20064;-72
2024/03/25 00:52:40;;;;;;;17.38;2.75;;;5.80;99.90;;;;;;4992926;28;20023;-70
2024/03/25 00:55:08;;;;;;;11.23;3.55;;;5.80;99.90;;;;;;4992490;28;20038;-71
2024/03/25 00:57:34;;;;;;;14.38;3.67;;;5.70;99.90;;;;;;5007698;28;20036;-71
2024/03/25 00:59:59;;;;;;;12.93;2.45;;;5.80;99.90;;;;;;5007814;28;20069;-70
2024/03/25 01:02:27;;;;;;;13.85;1.92;;;5.80;99.90;;;;;;4993194;28;20038;-70
2024/03/25 01:04:54;;;;;;;4.78;2.28;;;5.70;99.90;;;;;;5001113;28;20093;-70
2024/03/25 01:07:20;;;;;;;6.80;1.80;;;5.70;99.90;;;;;;4987390;28;20085;-70
2024/03/25 01:09:45;;;;;;;5.03;2.35;;;5.70;99.90;;;;;;4991309;28;20435;-71
2024/03/25 01:12:11;;;;;;;5.63;1.73;;;5.80;99.90;;;;;;4992609;28;20533;-70
2024/03/25 01:14:37;;;;;;;2.47;1.58;;;5.80;99.90;;;;;;4991953;28;20045;-70
2024/03/25 01:17:03;;;;;;;4.43;1.92;;;5.90;99.90;;;;;;4992192;28;20022;-70
2024/03/25 01:19:29;;;;;;;8.80;2.83;;;5.90;99.90;;;;;;4992386;28;20042;-70
2024/03/25 01:21:55;;;;;;;7.90;2.33;;;5.90;99.90;;;;;;4992424;28;20109;-71
2024/03/25 01:24:21;;;;;;;14.02;2.90;;;5.90;99.90;;;;;;4992242;28;20386;-71
2024/03/25 01:26:47;;;;;;;8.23;2.67;;;5.90;99.90;;;;;;4991896;28;20117;-71
2024/03/25 01:29:12;;;;;;;7.65;1.73;;;5.90;99.90;;;;;;4992205;28;20057;-71
2024/03/25 01:31:38;;;;;;;13.55;2.70;;;5.80;99.90;;;;;;4992291;28;20565;-71
2024/03/25 01:34:04;;;;;;;5.50;2.45;;;5.90;99.90;;;;;;4991909;28;20050;-71
2024/03/25 01:36:30;;;;;;;6.10;2.95;;;5.90;99.90;;;;;;4991490;28;20062;-71
2024/03/25 01:38:55;;;;;;;4.70;2.35;;;5.90;99.90;;;;;;5005999;28;20026;-71
2024/03/25 01:41:23;;;;;;;8.82;1.85;;;5.80;99.90;;;;;;5006822;28;20073;-71
2024/03/25 01:43:48;;;;;;;6.07;1.95;;;5.80;99.90;;;;;;4991091;28;20053;-71
2024/03/25 01:46:16;;;;;;;3.17;1.75;;;5.70;99.90;;;;;;4991731;28;20022;-71
2024/03/25 01:48:44;;;;;;;4.03;1.23;;;5.70;99.90;;;;;;4989756;28;20101;-71
2024/03/25 01:51:12;;;;;;;6.80;1.67;;;5.60;99.90;;;;;;5007319;28;20108;-71
2024/03/25 01:53:39;;;;;;;4.47;2.08;;;5.70;99.90;;;;;;4991362;28;20499;-71
2024/03/25 01:56:05;;;;;;;2.38;1.55;;;5.60;99.90;;;;;;4991270;28;20026;-71
2024/03/25 01:58:31;;;;;;;5.25;1.42;;;5.60;99.90;;;;;;5006596;28;20112;-71
2024/03/25 02:01:01;;;;;;;3.97;1.20;;;5.50;99.90;;;;;;5006925;28;20180;-71
2024/03/25 02:03:27;;;;;;;3.17;1.40;;;5.50;99.90;;;;;;5008315;28;20050;-71
2024/03/25 02:06:00;;;;;;;10.35;1.85;;;5.50;99.90;;;;;;5004463;28;20035;-71
2024/03/25 02:08:27;;;;;;;4.18;1.25;;;5.50;99.90;;;;;;5003441;28;20034;-71
2024/03/25 02:10:55;;;;;;;3.47;1.40;;;5.40;99.90;;;;;;5006542;28;20102;-71
2024/03/25 02:13:21;;;;;;;2.50;1.15;;;5.50;99.90;;;;;;4991374;28;20391;-71
2024/03/25 02:15:51;;;;;;;1.77;1.30;;;5.50;99.90;;;;;;5000761;28;20060;-71
2024/03/25 02:18:17;;;;;;;2.97;1.52;;;5.50;99.90;;;;;;4991902;28;20385;-71
2024/03/25 02:20:44;;;;;;;5.15;2.30;;;5.40;99.90;;;;;;5005963;28;20509;-71
2024/03/25 02:23:12;;;;;;;6.32;1.25;;;5.40;99.90;;;;;;4984880;28;20120;-71
2024/03/25 02:25:40;;;;;;;2.95;1.63;;;5.40;99.90;;;;;;4983632;28;20041;-70
2024/03/25 02:28:06;;;;;;;4.47;1.75;;;5.40;99.90;;;;;;4996284;28;20069;-71
2024/03/25 02:30:31;;;;;;;4.55;1.67;;;5.30;99.90;;;;;;4991852;28;20120;-70
2024/03/25 02:32:57;;;;;;;3.88;1.80;;;5.30;99.90;;;;;;4986405;28;20511;-70
2024/03/25 02:35:26;;;;;;;6.15;1.67;;;5.20;99.90;;;;;;4986888;28;20466;-71
2024/03/25 02:37:52;;;;;;;4.72;2.38;;;5.20;99.90;;;;;;5000895;28;20611;-71
2024/03/25 02:40:19;;;;;;;6.82;1.95;;;5.10;99.90;;;;;;5005389;28;20070;-71
2024/03/25 02:42:46;;;;;;;6.82;1.45;;;5.10;99.90;;;;;;4990037;28;20042;-71
2024/03/25 02:45:11;;;;;;;6.55;1.48;;;5.00;99.90;;;;;;5005501;28;20090;-73
2024/03/25 02:47:37;;;;;;;2.95;1.70;;;5.00;99.90;;;;;;4991442;28;20525;-72
2024/03/25 02:50:04;;;;;;;4.45;2.25;;;5.00;99.90;;;;;;4992475;28;20395;-70
2024/03/25 02:52:29;;;;;;;3.95;2.15;;;4.90;99.90;;;;;;4994822;28;20371;-70
2024/03/25 02:54:55;;;;;;;4.90;2.38;;;4.90;99.90;;;;;;4994985;28;20027;-70
2024/03/25 02:57:21;;;;;;;4.03;1.58;;;4.80;99.90;;;;;;5006445;28;20555;-70
2024/03/25 02:59:47;;;;;;;9.55;2.78;;;4.80;99.90;;;;;;4993861;28;20132;-72
2024/03/25 03:02:13;;;;;;;4.90;1.88;;;4.70;99.90;;;;;;4994897;28;20030;-73
2024/03/25 03:04:38;;;;;;;7.05;1.63;;;4.60;99.90;;;;;;4995470;28;20038;-72
2024/03/25 03:07:04;;;;;;;3.78;1.05;;;4.60;99.90;;;;;;5009569;28;20034;-70
2024/03/25 03:09:30;;;;;;;6.72;1.85;;;4.60;99.90;;;;;;5009126;28;20112;-72
2024/03/25 03:11:56;;;;;;;3.78;1.60;;;4.70;99.90;;;;;;4993822;28;20440;-71
2024/03/25 03:14:22;;;;;;;3.53;1.58;;;4.70;99.90;;;;;;5008812;28;20042;-72
2024/03/25 03:16:49;;;;;;;13.32;2.92;;;4.60;99.90;;;;;;4993890;28;20065;-71
2024/03/25 03:19:15;;;;;;;12.15;3.08;;;4.60;99.90;;;;;;4994206;28;20030;-71
2024/03/25 03:21:40;;;;;;;5.60;1.67;;;4.50;99.90;;;;;;5009575;28;20110;-71
2024/03/25 03:24:06;;;;;;;4.20;2.40;;;4.50;99.90;;;;;;4993874;28;20026;-70
2024/03/25 03:26:32;;;;;;;6.72;2.05;;;4.50;99.90;;;;;;5009202;28;20450;-71
2024/03/25 03:28:58;;;;;;;3.70;2.20;;;4.50;99.90;;;;;;4994332;28;20022;-71
2024/03/25 03:31:25;;;;;;;2.38;1.55;;;4.40;99.90;;;;;;5009335;28;20022;-70
2024/03/25 03:33:51;;;;;;;5.95;1.42;;;4.50;99.90;;;;;;5008576;28;20033;-71
2024/03/25 03:36:19;;;;;;;4.30;1.92;;;4.50;99.90;;;;;;4993432;28;20030;-70
2024/03/25 03:38:45;;;;;;;5.43;1.20;;;4.50;99.90;;;;;;5009027;28;20081;-70
2024/03/25 03:41:11;;;;;;;2.85;1.17;;;4.40;99.90;;;;;;5008975;28;20380;-71
2024/03/25 03:43:37;;;;;;;5.10;1.88;;;4.30;99.90;;;;;;5007109;28;20061;-70
2024/03/25 03:46:04;;;;;;;6.97;2.33;;;4.30;99.90;;;;;;5008841;28;20022;-70
2024/03/25 03:48:30;;;;;;;3.22;1.60;;;4.20;99.90;;;;;;5008676;28;20030;-70
2024/03/25 03:50:56;;;;;;;2.40;1.30;;;4.20;99.90;;;;;;4994368;28;20022;-71
2024/03/25 03:53:23;;;;;;;3.15;1.65;;;4.10;99.90;;;;;;5009417;28;20045;-71
2024/03/25 03:56:01;;;;;;;3.08;1.10;;;4.20;99.90;;;;;;4994199;28;20541;-70
2024/03/25 03:58:28;;;;;;;2.90;1.45;;;4.10;99.90;;;;;;5009146;28;20037;-71
2024/03/25 04:00:54;;;;;;;2.22;1.63;;;4.10;99.90;;;;;;4994257;28;20029;-71
2024/03/25 04:03:21;;;;;;;2.40;1.40;;;4.00;99.90;;;;;;4995904;28;20038;-71
2024/03/25 04:05:46;;;;;;;3.72;2.05;;;4.00;99.90;;;;;;4994682;28;20114;-71
2024/03/25 04:08:12;;;;;;;2.65;1.52;;;4.00;99.90;;;;;;5005723;28;20154;-71
2024/03/25 04:10:40;;;;;;;3.10;1.63;;;3.90;99.90;;;;;;5006244;28;20031;-70
2024/03/25 04:13:07;;;;;;;4.45;1.27;;;3.90;99.90;;;;;;5008099;28;20037;-71
2024/03/25 04:15:41;;;;;;;3.20;1.38;;;3.90;99.90;;;;;;4995462;28;20093;-70
2024/03/25 04:18:08;;;;;;;14.63;1.77;;;3.90;99.90;;;;;;4993117;28;20113;-71
2024/03/25 04:20:38;;;;;;;3.22;1.02;;;3.90;99.90;;;;;;5008965;28;20186;-71
2024/03/25 04:23:06;;;;;;;1.38;1.05;;;4.00;99.90;;;;;;4993539;28;20077;-72
2024/03/25 04:25:34;;;;;;;3.78;2.15;;;4.00;99.90;;;;;;4993257;28;20062;-71
2024/03/25 04:28:00;;;;;;;8.13;2.60;;;4.10;99.90;;;;;;4993449;28;20030;-72
2024/03/25 04:30:25;;;;;;;3.40;1.45;;;4.10;99.90;;;;;;4994142;28;20026;-72
2024/03/25 04:32:51;;;;;;;4.30;1.85;;;4.10;99.90;;;;;;4992510;28;20474;-72
2024/03/25 04:35:17;;;;;;;3.92;2.72;;;4.10;99.90;;;;;;5007853;28;20130;-71
2024/03/25 04:37:43;;;;;;;4.57;1.90;;;4.00;99.90;;;;;;4992594;28;20042;-70
2024/03/25 04:40:11;;;;;;;4.15;1.92;;;4.00;99.90;;;;;;5008116;28;20566;-70
2024/03/25 04:42:37;;;;;;;7.68;1.88;;;4.00;99.90;;;;;;5007223;28;20046;-70
2024/03/25 04:45:04;;;;;;;7.18;2.35;;;4.00;99.90;;;;;;5007142;28;20026;-70
2024/03/25 04:47:29;;;;;;;5.72;2.15;;;4.00;99.90;;;;;;5008878;28;20026;-70
2024/03/25 04:49:55;;;;;;;4.88;2.05;;;4.00;99.90;;;;;;5001212;28;20353;-70
2024/03/25 04:52:23;;;;;;;6.35;2.33;;;4.00;99.90;;;;;;4992534;28;20034;-71
2024/03/25 04:54:49;;;;;;;4.82;2.72;;;4.00;99.90;;;;;;5007806;28;20030;-71
2024/03/25 04:57:15;;;;;;;6.97;2.25;;;4.00;99.90;;;;;;4990533;28;20034;-71
2024/03/25 04:59:41;;;;;;;6.18;2.78;;;4.00;99.90;;;;;;4992874;28;20026;-70
2024/03/25 05:02:06;;;;;;;7.15;3.22;;;3.90;99.90;;;;;;4992287;28;20068;-70
2024/03/25 05:04:32;;;;;;;7.05;2.75;;;3.90;99.90;;;;;;5010551;28;20070;-71
2024/03/25 05:06:58;;;;;;;9.25;3.10;;;3.90;99.90;;;;;;5007121;28;20026;-71
2024/03/25 05:09:24;;;;;;;5.72;2.47;;;3.80;99.90;;;;;;4992557;28;20023;-71
2024/03/25 05:11:50;;;;;;;5.10;2.05;;;3.80;99.90;;;;;;5007108;28;20072;-70
2024/03/25 05:14:16;;;;;;;4.32;3.00;;;3.80;99.90;;;;;;4984351;28;20433;-70
2024/03/25 05:16:42;;;;;;;4.15;2.10;;;3.80;99.90;;;;;;4983349;28;20034;-71
2024/03/25 05:19:07;;;;;;;9.20;2.25;;;3.80;99.90;;;;;;4986026;28;20061;-70
2024/03/25 05:21:33;;;;;;;6.22;3.28;;;3.80;99.90;;;;;;4985188;28;20066;-70
2024/03/25 05:23:59;;;;;;;10.93;3.17;;;3.80;99.90;;;;;;5000020;28;20116;-70
2024/03/25 05:26:25;;;;;;;7.93;2.83;;;3.80;99.90;;;;;;4997287;28;20035;-71
2024/03/25 05:28:57;;;;;;;7.43;2.60;;;3.80;99.90;;;;;;4998733;28;20037;-69
2024/03/25 05:31:23;;;;;;;3.88;2.30;;;3.80;99.90;;;;;;4999708;28;20498;-70
2024/03/25 05:33:49;;;;;;;4.25;2.47;;;3.70;99.90;;;;;;5001195;28;20030;-69
2024/03/25 05:36:15;;;;;;;6.72;2.70;;;3.70;99.90;;;;;;4984828;28;20066;-69
2024/03/25 05:38:42;;;;;;;9.38;2.95;;;3.60;99.90;;;;;;5006653;28;20060;-69
2024/03/25 05:41:09;;;;;;;5.38;2.05;;;3.60;99.90;;;;;;5004178;28;20035;-70
2024/03/25 05:43:35;;;;;;;6.80;2.33;;;3.70;99.90;;;;;;5002359;28;20023;-70
2024/03/25 05:46:01;;;;;;;4.55;2.33;;;3.60;99.90;;;;;;5002419;28;20080;-72
2024/03/25 05:48:27;;;;;;;2.75;1.63;;;3.60;99.90;;;;;;4987349;28;20438;-70
2024/03/25 05:51:10;;;;;;;7.50;2.80;;;3.60;99.90;;;;;;4986554;28;20057;-70
2024/03/25 05:53:37;;;;;;;8.38;2.35;;;3.60;99.90;;;;;;4985822;28;20100;-71
2024/03/25 05:56:04;;;;;;;4.32;2.30;;;3.70;99.90;;;;;;4986048;28;20037;-72
2024/03/25 05:58:29;;;;;;;6.18;2.20;;;3.70;99.90;;;;;;5002145;28;20066;-71
2024/03/25 06:00:55;;;;;;;5.70;2.58;;;3.70;99.90;;;;;;4988311;28;20077;-71
2024/03/25 06:03:21;;;;;;;4.65;2.55;;;3.70;99.90;;;;;;4998663;28;20058;-71
2024/03/25 06:05:48;;;;;;;6.97;3.97;;;3.70;99.90;;;;;;4999373;28;20038;-71
2024/03/25 06:08:32;;;;;;;4.03;2.35;;;3.80;99.90;;;;;;5002097;28;20027;-72
2024/03/25 06:11:01;;;;;;;7.10;2.63;;;3.80;99.90;;;;;;4997377;28;20096;-71
2024/03/25 06:13:27;;;;;;;2.83;2.17;;;3.80;99.90;;;;;;4986835;28;20034;-74
2024/03/25 06:15:53;;;;;;;5.72;2.38;;;3.80;99.90;;;;;;4987954;28;20634;-75
2024/03/25 06:18:19;;;;;;;5.25;2.63;;;3.80;99.90;;;;;;4999832;28;20027;-69
2024/03/25 06:20:45;;;;;;;6.55;2.83;;;3.90;99.90;;;;;;4983605;28;20068;-70
2024/03/25 06:23:11;;;;;;;4.15;3.00;;;3.90;99.90;;;;;;4998917;28;20467;-70
2024/03/25 06:25:37;;;;;;;9.90;3.33;;;4.00;99.90;;;;;;4987043;28;20041;-70
2024/03/25 06:28:04;;;;;;;5.05;2.80;;;4.00;99.90;;;;;;4988368;28;20022;-69
2024/03/25 06:35:58;;;;;;;6.53;3.80;;;4.30;99.90;;;;;;4994271;28;20567;-69
2024/03/25 06:38:23;;;;;;;4.40;2.40;;;4.40;99.90;;;;;;5009535;28;20117;-69
2024/03/25 06:40:51;;;;;;;10.75;2.83;;;4.50;99.90;;;;;;5009235;28;20034;-69
2024/03/25 06:43:18;;;;;;;11.73;3.05;;;4.60;99.90;;;;;;4990832;28;20684;-69
2024/03/25 06:45:44;;;;;;;4.70;2.65;;;4.60;99.90;;;;;;4988902;28;20034;-69
2024/03/25 06:48:10;;;;;;;5.65;3.15;;;4.70;99.90;;;;;;4993565;28;20557;-69
2024/03/25 06:50:36;;;;;;;9.40;3.47;;;4.80;99.90;;;;;;4994942;28;20049;-69
2024/03/25 06:53:02;;;;;;;6.57;3.30;;;4.80;99.90;;;;;;5009353;28;20053;-69
2024/03/25 06:55:28;;;;;;;8.77;4.07;;;4.90;99.90;;;;;;4994045;28;20054;-70
2024/03/25 06:57:54;;;;;;;15.70;4.88;;;4.90;99.90;;;;;;4994165;28;20109;-69
2024/03/25 07:00:22;;;;;;;6.75;3.40;;;5.00;99.90;;;;;;5009277;28;20042;-70
2024/03/25 07:02:48;;;;;;;7.13;2.85;;;5.00;99.90;;;;;;5009307;28;20092;-69
2024/03/25 07:05:14;;;;;;;8.10;4.05;;;5.00;99.90;;;;;;4993274;28;20023;-70
2024/03/25 07:07:40;;;;;;;5.28;2.78;;;5.10;99.90;;;;;;5009623;28;20041;-69
2024/03/25 07:10:06;;;;;;;9.35;2.72;;;5.20;99.90;;;;;;4993744;28;20062;-71
2024/03/25 07:12:32;;;;;;;9.25;3.22;;;5.30;99.90;;;;;;4991559;28;20109;-55
2024/03/25 07:14:58;;;;;;;7.88;3.10;;;5.30;99.90;;;;;;4994216;28;20109;-62
2024/03/25 07:17:23;;;;;;;7.28;2.42;;;5.40;99.90;;;;;;4993309;28;20034;-62
2024/03/25 07:19:49;;;;;;;5.30;2.42;;;5.50;99.90;;;;;;4994313;28;20112;-64
2024/03/25 07:22:15;;;;;;;4.60;2.85;;;5.60;99.90;;;;;;5008627;28;20034;-63
2024/03/25 07:24:40;;;;;;;5.93;3.60;;;5.70;99.90;;;;;;4993904;28;20497;-63
2024/03/25 07:27:08;;;;;;;5.15;2.63;;;5.80;99.90;;;;;;4993004;28;20023;-63
2024/03/25 07:29:33;;;;;;;7.55;2.63;;;5.80;99.90;;;;;;4994235;28;20463;-64
2024/03/25 07:31:59;;;;;;;5.43;2.22;;;5.80;99.90;;;;;;5008419;28;20081;-67
2024/03/25 07:34:26;;;;;;;12.82;3.47;;;5.90;99.90;;;;;;4996913;28;20035;-66
2024/03/25 07:36:52;;;;;;;7.95;2.70;;;5.90;99.90;;;;;;4992428;28;20033;-67
2024/03/25 07:39:17;;;;;;;7.50;3.20;;;5.90;99.90;;;;;;4994261;28;20071;-67
2024/03/25 07:41:43;;;;;;;4.72;2.70;;;6.00;99.90;;;;;;4995358;28;20114;-66
2024/03/25 07:44:09;;;;;;;7.80;2.55;;;6.10;99.90;;;;;;4987048;28;20034;-66
2024/03/25 07:46:35;;;;;;;6.38;3.05;;;6.20;99.90;;;;;;4995289;28;20455;-70
2024/03/25 07:49:00;;;;;;;3.40;1.73;;;6.20;99.90;;;;;;4993245;28;20042;-68
2024/03/25 07:51:26;;;;;;;5.32;2.47;;;6.30;99.90;;;;;;4993312;28;20037;-67
2024/03/25 07:53:52;;;;;;;6.65;2.60;;;6.40;99.90;;;;;;4992410;28;20050;-66
2024/03/25 07:56:18;;;;;;;5.13;2.67;;;6.40;99.90;;;;;;4992632;28;20084;-68
2024/03/25 07:58:44;;;;;;;7.03;1.92;;;6.40;99.90;;;;;;4992782;28;20026;-67
2024/03/25 08:01:10;;;;;;;6.03;2.13;;;6.50;99.90;;;;;;4996402;28;20085;-67
2024/03/25 08:03:35;;;;;;;4.85;2.03;;;6.60;99.90;;;;;;5010643;28;20518;-66
2024/03/25 08:06:01;;;;;;;3.83;2.22;;;6.70;99.90;;;;;;4996196;28;20438;-68
2024/03/25 08:08:27;;;;;;;7.25;2.20;;;6.80;99.90;;;;;;5013893;28;20038;-67
2024/03/25 08:10:52;;;;;;;4.97;2.17;;;6.80;99.90;;;;;;4998120;28;20604;-66
2024/03/25 08:13:22;;;;;;;3.88;2.25;;;6.90;99.90;;;;;;4993067;28;20042;-67
2024/03/25 08:15:48;;;;;;;2.80;1.50;;;6.90;99.90;;;;;;4992400;28;20035;-67
2024/03/25 08:18:14;;;;;;;4.03;1.88;;;7.00;99.90;;;;;;4995494;28;20069;-67
2024/03/25 08:20:40;;;;;;;8.40;1.85;;;7.10;99.90;;;;;;4999385;28;20434;-67
2024/03/25 08:23:05;;;;;;;4.18;2.20;;;7.20;99.90;;;;;;4993007;28;20030;-67
2024/03/25 08:25:31;;;;;;;6.90;2.53;;;7.30;99.90;;;;;;4998175;28;20027;-67
2024/03/25 08:27:58;;;;;;;4.18;2.30;;;7.50;99.90;;;;;;4992571;28;20394;-66
2024/03/25 08:30:24;;;;;;;3.90;2.00;;;7.50;99.90;;;;;;5015713;28;20104;-67
2024/03/25 08:32:50;;;;;;;5.85;2.03;;;7.60;99.90;;;;;;5007298;28;20631;-66
2024/03/25 08:35:18;;;;;;;7.47;2.30;;;7.70;99.90;;;;;;5014246;28;20050;-67
2024/03/25 08:37:44;;;;;;;8.40;2.40;;;7.80;99.90;;;;;;4991841;28;20543;-66
2024/03/25 08:40:10;;;;;;;7.68;1.85;;;8.00;99.90;;;;;;4991952;28;20034;-66
2024/03/25 08:42:36;;;;;;;9.65;1.63;;;8.00;99.90;;;;;;4992438;28;20414;-67
2024/03/25 08:45:02;;;;;;;3.92;1.40;;;7.90;99.90;;;;;;4995583;28;20038;-67
2024/03/25 08:47:28;;;;;;;4.97;2.97;;;8.00;99.90;;;;;;5006685;28;20026;-67
2024/03/25 08:49:54;;;;;;;6.45;2.25;;;8.00;99.90;;;;;;5000072;28;20096;-67
2024/03/25 08:52:19;;;;;;;3.08;1.70;;;8.20;99.90;;;;;;4992058;28;20025;-67
2024/03/25 08:54:45;;;;;;;6.28;2.33;;;8.40;99.90;;;;;;4999823;28;20422;-67
2024/03/25 08:57:11;;;;;;;3.58;1.98;;;8.40;99.90;;;;;;4991491;28;20034;-67
2024/03/25 08:59:36;;;;;;;4.97;1.88;;;8.30;99.90;;;;;;5014425;28;20037;-67
2024/03/25 09:02:02;;;;;;;3.10;1.90;;;8.30;99.90;;;;;;4992381;28;20072;-67
2024/03/25 09:04:28;;;;;;;13.05;2.10;;;8.60;99.90;;;;;;5013327;28;20030;-67
2024/03/25 09:06:54;;;;;;;6.90;2.15;;;8.90;99.90;;;;;;4991868;28;20118;-67
2024/03/25 09:12:04;;;;;;;3.90;1.42;;;8.90;99.90;;;;;;4985133;28;20124;-67
2024/03/25 09:14:30;;;;;;;14.98;2.35;;;9.10;99.90;;;;;;4998802;28;20065;-67
2024/03/25 09:16:56;;;;;;;6.03;1.75;;;9.10;99.90;;;;;;5006575;28;20053;-67
2024/03/25 09:19:21;;;;;;;6.28;2.40;;;9.10;99.90;;;;;;4998143;28;20497;-67
2024/03/25 09:21:47;;;;;;;8.73;2.10;;;9.20;99.90;;;;;;4992751;28;20035;-67
2024/03/25 09:24:13;;;;;;;4.63;2.17;;;9.40;99.90;;;;;;4996220;28;20040;-67
2024/03/25 09:26:39;;;;;;;6.38;2.13;;;9.30;99.90;;;;;;4993823;28;20038;-67
2024/03/25 09:29:06;;;;;;;9.80;1.35;;;9.60;99.90;;;;;;4995691;28;20066;-67
2024/03/25 09:31:31;;;;;;;12.65;2.38;;;9.80;99.90;;;;;;4995407;28;20112;-67
2024/03/25 09:33:57;;;;;;;5.50;2.10;;;9.80;99.90;;;;;;4993676;28;20027;-67
2024/03/25 09:36:23;;;;;;;3.92;1.83;;;10.00;99.90;;;;;;4993709;28;20033;-67
2024/03/25 09:38:50;;;;;;;4.40;1.55;;;9.70;99.90;;;;;;4991503;28;20089;-67
2024/03/25 09:41:16;;;;;;;6.97;1.48;;;9.60;99.90;;;;;;4995220;28;20030;-67
2024/03/25 09:43:52;;;;;;;5.07;1.98;;;9.80;99.90;;;;;;4990817;28;20045;-67
2024/03/25 09:46:18;;;;;;;5.93;3.47;;;10.20;99.90;;;;;;5004049;28;20038;-66
2024/03/25 09:48:44;;;;;;;4.90;2.05;;;10.10;99.90;;;;;;4995207;28;20394;-67
2024/03/25 09:51:10;;;;;;;3.28;1.60;;;10.30;99.90;;;;;;4993296;28;20022;-67
2024/03/25 09:53:36;;;;;;;4.38;2.05;;;9.90;99.90;;;;;;4994814;28;20029;-68
2024/03/25 09:56:02;;;;;;;5.63;1.48;;;9.90;99.90;;;;;;5020738;22;20377;-72
2024/03/25 09:58:30;;;;;;;3.80;1.77;;;10.10;99.90;;;;;;5001985;28;20026;-72
2024/03/25 10:00:57;;;;;;;4.43;2.40;;;10.00;99.90;;;;;;4993747;28;20030;-72
2024/03/25 10:03:23;;;;;;;9.23;2.25;;;10.20;99.90;;;;;;4989264;28;20818;-71
2024/03/25 10:05:50;;;;;;;7.78;1.80;;;10.30;99.90;;;;;;4991498;28;20110;-71
2024/03/25 10:08:21;;;;;;;6.72;2.10;;;10.60;99.60;;;;;;4975680;28;20098;-71
2024/03/25 10:10:47;;;;;;;3.58;1.58;;;10.70;99.00;;;;;;4981120;28;20929;-71
2024/03/25 10:13:13;;;;;;;5.05;2.50;;;10.70;98.90;;;;;;4981112;28;20101;-71
2024/03/25 10:15:38;;;;;;;2.33;1.50;;;10.80;98.70;;;;;;4986693;28;20066;-71
2024/03/25 10:18:04;;;;;;;3.17;1.45;;;11.20;98.00;;;;;;4976126;28;20057;-71
2024/03/25 10:20:30;;;;;;;4.60;1.90;;;11.70;97.40;;;;;;4989311;28;20458;-71
2024/03/25 10:22:57;;;;;;;6.70;1.75;;;11.70;95.70;;;;;;4978901;28;20045;-70
2024/03/25 10:25:28;;;;;;;4.22;2.13;;;10.90;97.00;;;;;;4985016;28;20038;-71
2024/03/25 10:28:01;;;;;;;8.57;2.15;;;11.50;96.20;;;;;;4994803;28;20093;-71
2024/03/25 10:30:28;;;;;;;5.18;1.70;;;11.50;95.50;;;;;;4994424;28;20446;-70
2024/03/25 10:33:04;;;;;;;3.97;2.03;;;10.80;95.20;;;;;;4986834;28;20030;-71
2024/03/25 10:35:32;;;;;;;7.90;1.88;;;10.90;95.90;;;;;;4995863;28;20101;-71
2024/03/25 10:38:04;;;;;;;7.35;1.92;;;11.10;95.00;;;;;;4986044;28;20419;-71
2024/03/25 10:40:39;;;;;;;4.00;1.40;;;11.20;96.00;;;;;;4987199;28;20029;-71
2024/03/25 10:43:08;;;;;;;6.95;1.90;;;11.70;94.00;;;;;;4977329;28;20534;-71
2024/03/25 10:45:53;;;;;;;9.02;3.17;;;12.00;93.10;;;;;;4972338;28;20285;-72
2024/03/25 10:48:40;;;;;;;10.75;2.05;;;12.30;92.90;;;;;;4970695;28;20118;-71
2024/03/25 10:51:09;;;;;;;8.18;2.95;;;11.70;92.50;;;;;;4993479;28;20030;-71
2024/03/25 10:53:36;;;;;;;5.72;1.90;;;11.50;91.70;;;;;;4971495;28;20113;-71
2024/03/25 10:56:04;;;;;;;4.82;2.10;;;11.20;92.50;;;;;;4972753;28;20077;-71
2024/03/25 10:58:31;;;;;;;5.35;1.20;;;11.50;91.40;;;;;;4967913;28;20049;-71
2024/03/25 11:00:58;;;;;;;5.10;2.33;;;11.70;91.50;;;;;;4971132;28;20042;-71
2024/03/25 11:03:24;;;;;;;3.35;1.60;;;11.20;93.30;;;;;;4973103;28;20042;-70
2024/03/25 11:05:50;;;;;;;3.00;1.35;;;10.80;92.50;;;;;;4957355;28;20086;-70
2024/03/25 11:08:17;;;;;;;2.55;1.33;;;11.10;92.70;;;;;;4965459;28;20659;-70
2024/03/25 11:10:48;;;;;;;6.22;2.35;;;11.80;92.30;;;;;;4970887;28;20097;-70
2024/03/25 11:13:18;;;;;;;5.07;1.85;;;12.30;92.30;;;;;;4974334;28;20035;-66
2024/03/25 11:15:47;;;;;;;6.35;1.98;;;12.60;91.00;;;;;;4977944;28;20305;-67
2024/03/25 11:18:14;;;;;;;4.00;1.52;;;12.60;90.60;;;;;;4979326;28;20041;-70
2024/03/25 11:20:40;;;;;;;3.85;1.50;;;12.40;90.00;;;;;;4961187;28;20066;-70
2024/03/25 11:23:13;;;;;;;4.90;1.65;;;12.30;90.10;;;;;;5001639;28;20084;-71
2024/03/25 11:25:41;;;;;;;3.90;1.85;;;12.00;90.60;;;;;;4979736;28;20369;-69
2024/03/25 11:28:10;;;;;;;3.35;1.50;;;12.70;85.90;;;;;;4993085;28;20399;-70
2024/03/25 11:30:37;;;;;;;4.68;1.48;;;12.60;86.60;;;;;;4993727;28;20064;-72
2024/03/25 11:33:07;;;;;;;5.63;1.75;;;12.40;86.90;;;;;;4978388;28;20050;-70
2024/03/25 11:35:39;;;;;;;8.25;1.70;;;11.90;89.20;;;;;;4986240;28;20042;-71
2024/03/25 11:38:05;;;;;;;3.80;1.50;;;12.00;87.10;;;;;;4974794;28;20023;-71
2024/03/25 11:40:31;;;;;;;3.83;1.52;;;12.20;87.30;;;;;;4983390;28;20042;-71
2024/03/25 11:42:58;;;;;;;6.30;1.80;;;12.10;84.40;;;;;;4975094;28;20375;-71
2024/03/25 11:45:25;;;;;;;2.85;1.30;;;11.50;85.90;;;;;;4999903;28;20046;-71
2024/03/25 11:47:50;;;;;;;3.85;0.98;;;11.80;87.10;;;;;;4996881;28;20488;-71
2024/03/25 11:50:19;;;;;;;1.63;1.02;;;12.20;87.90;;;;;;4989942;28;20033;-71
2024/03/25 11:52:46;;;;;;;7.63;2.03;;;13.20;87.90;;;;;;4991473;28;20027;-73
2024/03/25 11:55:19;;;;;;;7.07;1.67;;;13.60;82.00;;;;;;4983970;28;20027;-71
2024/03/25 11:57:45;;;;;;;2.17;1.35;;;13.50;79.00;;;;;;4988891;28;20066;-71
2024/03/25 12:00:14;;;;;;;2.75;0.98;;;13.70;78.80;;;;;;5000628;28;20031;-72
2024/03/25 12:02:45;;;;;;;9.95;1.73;;;13.50;81.30;;;;;;4987922;28;20054;-72
2024/03/25 12:05:11;;;;;;;4.15;1.55;;;14.60;80.50;;;;;;4991696;28;20035;-72
2024/03/25 12:07:37;;;;;;;5.30;2.33;;;13.70;77.80;;;;;;4973999;28;20039;-73
2024/03/25 12:12:50;;;;;;;5.70;1.38;;;14.80;79.20;;;;;;4972688;28;20050;-71
2024/03/25 12:15:17;;;;;;;3.95;1.67;;;14.30;78.00;;;;;;4991857;28;20027;-71
2024/03/25 12:17:43;;;;;;;4.20;2.00;;;14.20;77.40;;;;;;4990019;28;20037;-70
2024/03/25 12:20:12;;;;;;;21.13;8.48;;;15.00;79.20;;;;;;5000185;28;20031;-70
2024/03/25 12:22:40;;;;;;;7.72;2.90;;;17.70;72.50;;;;;;4981012;28;20499;-70
2024/03/25 12:25:07;;;;;;;4.40;1.40;;;16.80;69.70;;;;;;5002041;28;20031;-70
2024/03/25 12:27:36;;;;;;;2.53;1.25;;;16.40;66.20;;;;;;5001778;28;20030;-70
2024/03/25 12:30:10;;;;;;;6.43;2.05;;;14.10;69.60;;;;;;4974681;28;20472;-72
2024/03/25 12:32:41;;;;;;;4.15;1.50;;;16.00;72.20;;;;;;4995248;28;20378;-72
2024/03/25 12:35:10;;;;;;;;;;;17.30;69.50;;;;;;5007013;28;20033;-71
2024/03/25 12:37:38;;;;;;;2.40;1.00;;;17.60;63.50;;;;;;5000235;28;19918;-71
2024/03/25 12:40:06;;;;;;;2.70;1.10;;;18.00;63.10;;;;;;4989432;28;20036;-72
2024/03/25 12:42:32;;;;;;;3.00;1.08;;;17.80;61.50;;;;;;5011848;28;20068;-73
2024/03/25 12:44:58;;;;;;;1.95;0.88;;;15.60;64.60;;;;;;4992815;28;20054;-71
2024/03/25 12:47:24;;;;;;;16.63;1.15;;;15.40;67.00;;;;;;4991710;28;20057;-73
2024/03/25 12:49:49;;;;;;;1.80;1.10;;;16.50;65.20;;;;;;4989109;28;20053;-71
2024/03/25 12:52:15;;;;;;;4.43;1.08;;;18.40;61.80;;;;;;4986701;28;20539;-72
2024/03/25 12:54:41;;;;;;;2.83;1.52;;;17.70;60.90;;;;;;4991345;28;20038;-72
2024/03/25 12:57:08;;;;;;;1.95;0.75;;;17.70;61.70;;;;;;4972822;28;20026;-72
2024/03/25 12:59:33;;;;;;;4.32;0.98;;;16.60;61.80;;;;;;4988031;28;20041;-72
2024/03/25 13:01:59;;;;;;;3.08;1.27;;;16.30;61.80;;;;;;4987011;28;20034;-72